sensor_id;sensor_type;location;lat;lon;timestamp;temperature;humidity
33139;DHT22;19501;50.948;5.316;2022-09-01T00:01:22;19.90;95.70
33139;DHT22;19501;50.948;5.316;2022-09-01T00:03:51;19.80;95.80
33139;DHT22;19501;50.948;5.316;2022-09-01T00:06:19;19.80;95.70
33139;DHT22;19501;50.948;5.316;2022-09-01T00:08:58;19.70;95.90
33139;DHT22;19501;50.948;5.316;2022-09-01T00:11:25;19.70;96.00
33139;DHT22;19501;50.948;5.316;2022-09-01T00:13:53;19.60;96.50
33139;DHT22;19501;50.948;5.316;2022-09-01T00:16:20;19.70;96.00
33139;DHT22;19501;50.948;5.316;2022-09-01T00:18:49;19.70;95.90
33139;DHT22;19501;50.948;5.316;2022-09-01T00:21:17;19.60;96.00
33139;DHT22;19501;50.948;5.316;2022-09-01T00:23:46;19.60;96.10
33139;DHT22;19501;50.948;5.316;2022-09-01T00:26:12;19.50;96.10
33139;DHT22;19501;50.948;5.316;2022-09-01T00:28:38;19.50;96.30
33139;DHT22;19501;50.948;5.316;2022-09-01T00:31:04;19.50;96.50
33139;DHT22;19501;50.948;5.316;2022-09-01T00:33:31;19.40;96.70
33139;DHT22;19501;50.948;5.316;2022-09-01T00:35:58;19.30;96.80
33139;DHT22;19501;50.948;5.316;2022-09-01T00:38:25;19.20;96.90
33139;DHT22;19501;50.948;5.316;2022-09-01T00:40:50;19.20;97.00
33139;DHT22;19501;50.948;5.316;2022-09-01T00:43:20;19.20;97.10
33139;DHT22;19501;50.948;5.316;2022-09-01T00:45:47;19.30;96.90
33139;DHT22;19501;50.948;5.316;2022-09-01T00:48:14;19.30;96.80
33139;DHT22;19501;50.948;5.316;2022-09-01T00:50:41;19.20;97.10
33139;DHT22;19501;50.948;5.316;2022-09-01T00:53:08;19.20;97.10
33139;DHT22;19501;50.948;5.316;2022-09-01T00:55:36;19.00;97.40
33139;DHT22;19501;50.948;5.316;2022-09-01T00:58:04;19.00;97.60
33139;DHT22;19501;50.948;5.316;2022-09-01T01:00:33;19.00;97.60
33139;DHT22;19501;50.948;5.316;2022-09-01T01:03:06;18.90;97.90
33139;DHT22;19501;50.948;5.316;2022-09-01T01:05:37;18.90;97.90
33139;DHT22;19501;50.948;5.316;2022-09-01T01:08:05;18.90;98.00
33139;DHT22;19501;50.948;5.316;2022-09-01T01:10:38;18.70;98.40
33139;DHT22;19501;50.948;5.316;2022-09-01T01:13:13;18.70;98.60
33139;DHT22;19501;50.948;5.316;2022-09-01T01:15:43;18.60;98.70
33139;DHT22;19501;50.948;5.316;2022-09-01T01:18:13;18.60;98.80
33139;DHT22;19501;50.948;5.316;2022-09-01T01:20:40;18.60;98.80
33139;DHT22;19501;50.948;5.316;2022-09-01T01:23:33;18.60;98.80
33139;DHT22;19501;50.948;5.316;2022-09-01T01:26:02;18.60;98.90
33139;DHT22;19501;50.948;5.316;2022-09-01T01:28:30;18.60;98.80
33139;DHT22;19501;50.948;5.316;2022-09-01T01:31:04;18.60;99.10
33139;DHT22;19501;50.948;5.316;2022-09-01T01:33:36;18.50;99.10
33139;DHT22;19501;50.948;5.316;2022-09-01T01:36:25;18.50;99.10
33139;DHT22;19501;50.948;5.316;2022-09-01T01:38:59;18.40;99.30
33139;DHT22;19501;50.948;5.316;2022-09-01T01:41:28;18.40;99.50
33139;DHT22;19501;50.948;5.316;2022-09-01T01:43:58;18.40;99.70
33139;DHT22;19501;50.948;5.316;2022-09-01T01:46:25;18.40;99.90
33139;DHT22;19501;50.948;5.316;2022-09-01T01:48:52;18.30;99.90
33139;DHT22;19501;50.948;5.316;2022-09-01T01:51:19;18.20;99.90
33139;DHT22;19501;50.948;5.316;2022-09-01T01:53:46;18.10;99.90
33139;DHT22;19501;50.948;5.316;2022-09-01T01:56:12;18.10;99.90
33139;DHT22;19501;50.948;5.316;2022-09-01T01:58:38;18.20;99.90
33139;DHT22;19501;50.948;5.316;2022-09-01T02:01:05;18.20;99.90
33139;DHT22;19501;50.948;5.316;2022-09-01T02:03:32;18.30;99.90
33139;DHT22;19501;50.948;5.316;2022-09-01T02:06:05;18.30;99.90
33139;DHT22;19501;50.948;5.316;2022-09-01T02:08:33;18.20;99.90
33139;DHT22;19501;50.948;5.316;2022-09-01T02:11:01;18.20;99.90
33139;DHT22;19501;50.948;5.316;2022-09-01T02:13:27;18.20;99.90
33139;DHT22;19501;50.948;5.316;2022-09-01T02:16:13;18.20;99.90
33139;DHT22;19501;50.948;5.316;2022-09-01T02:18:44;18.00;99.90
33139;DHT22;19501;50.948;5.316;2022-09-01T02:21:14;18.00;99.90
33139;DHT22;19501;50.948;5.316;2022-09-01T02:23:48;18.00;99.90
33139;DHT22;19501;50.948;5.316;2022-09-01T02:26:15;18.00;99.90
33139;DHT22;19501;50.948;5.316;2022-09-01T02:28:48;18.10;99.90
33139;DHT22;19501;50.948;5.316;2022-09-01T02:31:14;18.00;99.90
33139;DHT22;19501;50.948;5.316;2022-09-01T02:33:40;18.00;99.90
33139;DHT22;19501;50.948;5.316;2022-09-01T02:36:12;18.10;99.90
33139;DHT22;19501;50.948;5.316;2022-09-01T02:38:40;18.00;99.90
33139;DHT22;19501;50.948;5.316;2022-09-01T02:41:11;17.90;99.90
33139;DHT22;19501;50.948;5.316;2022-09-01T02:43:38;17.80;99.90
33139;DHT22;19501;50.948;5.316;2022-09-01T02:46:05;17.80;99.90
33139;DHT22;19501;50.948;5.316;2022-09-01T02:48:39;17.80;99.90
33139;DHT22;19501;50.948;5.316;2022-09-01T02:51:09;17.90;99.90
33139;DHT22;19501;50.948;5.316;2022-09-01T02:53:36;17.90;99.90
33139;DHT22;19501;50.948;5.316;2022-09-01T02:56:05;17.90;99.90
33139;DHT22;19501;50.948;5.316;2022-09-01T02:58:35;18.00;99.90
33139;DHT22;19501;50.948;5.316;2022-09-01T03:01:10;17.80;99.90
33139;DHT22;19501;50.948;5.316;2022-09-01T03:03:36;17.60;99.90
33139;DHT22;19501;50.948;5.316;2022-09-01T03:06:02;17.40;99.90
33139;DHT22;19501;50.948;5.316;2022-09-01T03:08:29;17.50;99.90
33139;DHT22;19501;50.948;5.316;2022-09-01T03:11:01;17.40;99.90
33139;DHT22;19501;50.948;5.316;2022-09-01T03:13:27;17.40;99.90
33139;DHT22;19501;50.948;5.316;2022-09-01T03:15:53;17.40;99.90
33139;DHT22;19501;50.948;5.316;2022-09-01T03:18:19;17.50;99.90
33139;DHT22;19501;50.948;5.316;2022-09-01T03:20:46;17.50;99.90
33139;DHT22;19501;50.948;5.316;2022-09-01T03:23:15;17.40;99.90
33139;DHT22;19501;50.948;5.316;2022-09-01T03:25:42;17.30;99.90
33139;DHT22;19501;50.948;5.316;2022-09-01T03:28:08;17.30;99.90
33139;DHT22;19501;50.948;5.316;2022-09-01T03:30:39;17.20;99.90
33139;DHT22;19501;50.948;5.316;2022-09-01T03:33:08;17.20;99.90
33139;DHT22;19501;50.948;5.316;2022-09-01T03:35:34;17.10;99.90
33139;DHT22;19501;50.948;5.316;2022-09-01T03:38:00;17.10;99.90
33139;DHT22;19501;50.948;5.316;2022-09-01T03:40:29;17.20;99.90
33139;DHT22;19501;50.948;5.316;2022-09-01T03:43:01;17.30;99.90
33139;DHT22;19501;50.948;5.316;2022-09-01T03:45:27;17.20;99.90
33139;DHT22;19501;50.948;5.316;2022-09-01T03:47:54;17.10;99.90
33139;DHT22;19501;50.948;5.316;2022-09-01T03:50:23;17.00;99.90
33139;DHT22;19501;50.948;5.316;2022-09-01T03:52:51;16.80;99.90
33139;DHT22;19501;50.948;5.316;2022-09-01T03:55:20;16.80;99.90
33139;DHT22;19501;50.948;5.316;2022-09-01T03:57:56;16.80;99.90
33139;DHT22;19501;50.948;5.316;2022-09-01T04:00:24;16.80;99.90
33139;DHT22;19501;50.948;5.316;2022-09-01T04:02:56;16.80;99.90
33139;DHT22;19501;50.948;5.316;2022-09-01T04:05:24;16.90;99.90
33139;DHT22;19501;50.948;5.316;2022-09-01T04:07:57;16.90;99.90
33139;DHT22;19501;50.948;5.316;2022-09-01T04:10:24;17.00;99.90
33139;DHT22;19501;50.948;5.316;2022-09-01T04:12:50;17.00;99.90
33139;DHT22;19501;50.948;5.316;2022-09-01T04:15:17;17.10;99.90
33139;DHT22;19501;50.948;5.316;2022-09-01T04:17:44;17.10;99.90
33139;DHT22;19501;50.948;5.316;2022-09-01T04:20:28;17.00;99.90
33139;DHT22;19501;50.948;5.316;2022-09-01T04:22:54;16.90;99.90
33139;DHT22;19501;50.948;5.316;2022-09-01T04:25:20;16.80;99.90
33139;DHT22;19501;50.948;5.316;2022-09-01T04:27:50;16.80;99.90
33139;DHT22;19501;50.948;5.316;2022-09-01T04:30:20;16.80;99.90
33139;DHT22;19501;50.948;5.316;2022-09-01T04:32:51;16.80;99.90
33139;DHT22;19501;50.948;5.316;2022-09-01T04:35:21;16.90;99.90
33139;DHT22;19501;50.948;5.316;2022-09-01T04:37:57;16.90;99.90
33139;DHT22;19501;50.948;5.316;2022-09-01T04:40:24;16.80;99.90
33139;DHT22;19501;50.948;5.316;2022-09-01T04:42:50;16.70;99.90
33139;DHT22;19501;50.948;5.316;2022-09-01T04:45:15;16.80;99.90
33139;DHT22;19501;50.948;5.316;2022-09-01T04:47:44;16.80;99.90
33139;DHT22;19501;50.948;5.316;2022-09-01T04:50:11;16.70;99.90
33139;DHT22;19501;50.948;5.316;2022-09-01T04:52:43;16.50;99.90
33139;DHT22;19501;50.948;5.316;2022-09-01T04:55:11;16.40;99.90
33139;DHT22;19501;50.948;5.316;2022-09-01T04:57:45;16.30;99.90
33139;DHT22;19501;50.948;5.316;2022-09-01T05:00:16;16.30;99.90
33139;DHT22;19501;50.948;5.316;2022-09-01T05:02:52;16.20;99.90
33139;DHT22;19501;50.948;5.316;2022-09-01T05:05:19;16.20;99.90
33139;DHT22;19501;50.948;5.316;2022-09-01T05:07:46;16.10;99.90
33139;DHT22;19501;50.948;5.316;2022-09-01T05:10:20;16.10;99.90
33139;DHT22;19501;50.948;5.316;2022-09-01T05:12:50;16.00;99.90
33139;DHT22;19501;50.948;5.316;2022-09-01T05:15:16;16.00;99.90
33139;DHT22;19501;50.948;5.316;2022-09-01T05:17:42;16.00;99.90
33139;DHT22;19501;50.948;5.316;2022-09-01T05:20:09;16.00;99.90
33139;DHT22;19501;50.948;5.316;2022-09-01T05:22:36;16.00;99.90
33139;DHT22;19501;50.948;5.316;2022-09-01T05:25:06;16.00;99.90
33139;DHT22;19501;50.948;5.316;2022-09-01T05:27:43;16.00;99.90
33139;DHT22;19501;50.948;5.316;2022-09-01T05:30:14;16.10;99.90
33139;DHT22;19501;50.948;5.316;2022-09-01T05:32:41;16.10;99.90
33139;DHT22;19501;50.948;5.316;2022-09-01T05:35:08;16.20;99.90
33139;DHT22;19501;50.948;5.316;2022-09-01T05:37:38;16.30;99.90
33139;DHT22;19501;50.948;5.316;2022-09-01T05:40:07;16.30;99.90
33139;DHT22;19501;50.948;5.316;2022-09-01T05:42:34;16.40;99.90
33139;DHT22;19501;50.948;5.316;2022-09-01T05:45:05;16.40;99.90
33139;DHT22;19501;50.948;5.316;2022-09-01T05:47:31;16.40;99.90
33139;DHT22;19501;50.948;5.316;2022-09-01T05:50:02;16.40;99.90
33139;DHT22;19501;50.948;5.316;2022-09-01T05:52:32;16.50;99.90
33139;DHT22;19501;50.948;5.316;2022-09-01T05:54:58;16.60;99.90
33139;DHT22;19501;50.948;5.316;2022-09-01T05:57:24;16.70;99.90
33139;DHT22;19501;50.948;5.316;2022-09-01T05:59:50;16.70;99.90
33139;DHT22;19501;50.948;5.316;2022-09-01T06:02:19;16.80;99.90
33139;DHT22;19501;50.948;5.316;2022-09-01T06:04:46;16.90;99.90
33139;DHT22;19501;50.948;5.316;2022-09-01T06:07:12;17.00;99.90
33139;DHT22;19501;50.948;5.316;2022-09-01T06:09:44;17.10;99.90
33139;DHT22;19501;50.948;5.316;2022-09-01T06:12:12;17.10;99.90
33139;DHT22;19501;50.948;5.316;2022-09-01T06:14:49;17.20;99.90
33139;DHT22;19501;50.948;5.316;2022-09-01T06:17:19;17.30;99.90
33139;DHT22;19501;50.948;5.316;2022-09-01T06:19:47;17.40;99.90
33139;DHT22;19501;50.948;5.316;2022-09-01T06:22:13;17.50;99.90
33139;DHT22;19501;50.948;5.316;2022-09-01T06:24:40;17.50;99.90
33139;DHT22;19501;50.948;5.316;2022-09-01T06:27:07;17.60;99.90
33139;DHT22;19501;50.948;5.316;2022-09-01T06:29:37;17.70;99.90
33139;DHT22;19501;50.948;5.316;2022-09-01T06:32:07;17.90;99.90
33139;DHT22;19501;50.948;5.316;2022-09-01T06:34:37;17.90;99.90
33139;DHT22;19501;50.948;5.316;2022-09-01T06:37:03;18.00;99.90
33139;DHT22;19501;50.948;5.316;2022-09-01T06:39:29;18.20;99.90
33139;DHT22;19501;50.948;5.316;2022-09-01T06:41:56;18.30;99.90
33139;DHT22;19501;50.948;5.316;2022-09-01T06:44:23;18.50;99.90
33139;DHT22;19501;50.948;5.316;2022-09-01T06:46:50;18.70;99.90
33139;DHT22;19501;50.948;5.316;2022-09-01T06:49:17;18.70;99.90
33139;DHT22;19501;50.948;5.316;2022-09-01T06:51:42;18.80;99.90
33139;DHT22;19501;50.948;5.316;2022-09-01T06:54:09;18.90;99.90
33139;DHT22;19501;50.948;5.316;2022-09-01T06:56:38;19.10;99.90
33139;DHT22;19501;50.948;5.316;2022-09-01T06:59:04;19.20;99.90
33139;DHT22;19501;50.948;5.316;2022-09-01T07:01:32;19.50;99.90
33139;DHT22;19501;50.948;5.316;2022-09-01T07:03:59;19.50;99.90
33139;DHT22;19501;50.948;5.316;2022-09-01T07:06:25;19.60;99.90
33139;DHT22;19501;50.948;5.316;2022-09-01T07:08:56;19.70;99.90
33139;DHT22;19501;50.948;5.316;2022-09-01T07:11:29;19.70;99.90
33139;DHT22;19501;50.948;5.316;2022-09-01T07:13:59;19.90;99.90
33139;DHT22;19501;50.948;5.316;2022-09-01T07:16:27;19.80;99.90
33139;DHT22;19501;50.948;5.316;2022-09-01T07:18:55;20.10;99.90
33139;DHT22;19501;50.948;5.316;2022-09-01T07:21:23;20.20;99.90
33139;DHT22;19501;50.948;5.316;2022-09-01T07:23:50;20.30;99.90
33139;DHT22;19501;50.948;5.316;2022-09-01T07:26:17;20.50;99.90
33139;DHT22;19501;50.948;5.316;2022-09-01T07:28:47;20.60;99.90
33139;DHT22;19501;50.948;5.316;2022-09-01T07:31:19;20.70;99.90
33139;DHT22;19501;50.948;5.316;2022-09-01T07:33:47;20.70;99.90
33139;DHT22;19501;50.948;5.316;2022-09-01T07:36:14;20.70;99.90
33139;DHT22;19501;50.948;5.316;2022-09-01T07:38:40;20.80;99.90
33139;DHT22;19501;50.948;5.316;2022-09-01T07:41:08;20.80;99.90
33139;DHT22;19501;50.948;5.316;2022-09-01T07:43:35;20.80;99.90
33139;DHT22;19501;50.948;5.316;2022-09-01T07:46:03;20.90;99.90
33139;DHT22;19501;50.948;5.316;2022-09-01T07:48:29;21.10;99.90
33139;DHT22;19501;50.948;5.316;2022-09-01T07:50:55;21.30;99.90
33139;DHT22;19501;50.948;5.316;2022-09-01T07:53:26;21.50;99.90
33139;DHT22;19501;50.948;5.316;2022-09-01T07:56:00;21.70;99.90
33139;DHT22;19501;50.948;5.316;2022-09-01T07:58:31;21.80;99.90
33139;DHT22;19501;50.948;5.316;2022-09-01T08:00:58;21.90;99.90
33139;DHT22;19501;50.948;5.316;2022-09-01T08:03:28;22.00;99.90
33139;DHT22;19501;50.948;5.316;2022-09-01T08:05:55;22.10;99.90
33139;DHT22;19501;50.948;5.316;2022-09-01T08:08:25;22.00;99.90
33139;DHT22;19501;50.948;5.316;2022-09-01T08:10:51;22.20;99.90
33139;DHT22;19501;50.948;5.316;2022-09-01T08:13:17;22.30;99.90
33139;DHT22;19501;50.948;5.316;2022-09-01T08:15:43;22.40;99.90
33139;DHT22;19501;50.948;5.316;2022-09-01T08:18:09;22.50;99.70
33139;DHT22;19501;50.948;5.316;2022-09-01T08:20:38;22.60;99.70
33139;DHT22;19501;50.948;5.316;2022-09-01T08:23:06;22.70;99.40
33139;DHT22;19501;50.948;5.316;2022-09-01T08:25:34;22.80;99.10
33139;DHT22;19501;50.948;5.316;2022-09-01T08:28:00;22.90;98.20
33139;DHT22;19501;50.948;5.316;2022-09-01T08:30:26;23.00;98.20
33139;DHT22;19501;50.948;5.316;2022-09-01T08:32:53;23.10;97.70
33139;DHT22;19501;50.948;5.316;2022-09-01T08:35:19;23.00;97.40
33139;DHT22;19501;50.948;5.316;2022-09-01T08:37:46;23.10;97.40
33139;DHT22;19501;50.948;5.316;2022-09-01T08:40:15;23.10;97.30
33139;DHT22;19501;50.948;5.316;2022-09-01T08:43:26;23.10;97.10
33139;DHT22;19501;50.948;5.316;2022-09-01T08:46:07;23.30;96.90
33139;DHT22;19501;50.948;5.316;2022-09-01T08:48:59;23.40;96.50
33139;DHT22;19501;50.948;5.316;2022-09-01T08:51:31;23.50;96.10
33139;DHT22;19501;50.948;5.316;2022-09-01T08:56:40;23.70;94.90
33139;DHT22;19501;50.948;5.316;2022-09-01T08:59:07;23.90;94.50
33139;DHT22;19501;50.948;5.316;2022-09-01T09:01:59;24.10;94.30
33139;DHT22;19501;50.948;5.316;2022-09-01T09:07:11;24.40;93.40
33139;DHT22;19501;50.948;5.316;2022-09-01T09:09:52;24.50;93.20
33139;DHT22;19501;50.948;5.316;2022-09-01T09:12:48;24.60;92.00
33139;DHT22;19501;50.948;5.316;2022-09-01T09:15:41;24.60;92.30
33139;DHT22;19501;50.948;5.316;2022-09-01T09:18:44;24.90;92.20
33139;DHT22;19501;50.948;5.316;2022-09-01T09:21:22;25.20;91.50
33139;DHT22;19501;50.948;5.316;2022-09-01T09:26:40;25.30;90.50
33139;DHT22;19501;50.948;5.316;2022-09-01T09:29:06;25.30;90.10
33139;DHT22;19501;50.948;5.316;2022-09-01T09:31:39;25.20;89.00
33139;DHT22;19501;50.948;5.316;2022-09-01T09:34:35;25.10;89.20
33139;DHT22;19501;50.948;5.316;2022-09-01T09:40:10;25.10;89.90
33139;DHT22;19501;50.948;5.316;2022-09-01T09:42:39;25.30;88.60
33139;DHT22;19501;50.948;5.316;2022-09-01T09:45:38;25.40;87.80
33139;DHT22;19501;50.948;5.316;2022-09-01T09:48:27;25.40;87.30
33139;DHT22;19501;50.948;5.316;2022-09-01T09:50:53;25.40;87.60
33139;DHT22;19501;50.948;5.316;2022-09-01T09:53:27;25.60;87.30
33139;DHT22;19501;50.948;5.316;2022-09-01T09:56:17;25.70;86.00
33139;DHT22;19501;50.948;5.316;2022-09-01T09:58:45;25.70;85.20
33139;DHT22;19501;50.948;5.316;2022-09-01T10:01:26;25.80;84.80
33139;DHT22;19501;50.948;5.316;2022-09-01T10:03:58;25.80;84.10
33139;DHT22;19501;50.948;5.316;2022-09-01T10:06:34;25.80;84.90
33139;DHT22;19501;50.948;5.316;2022-09-01T10:09:35;26.00;84.80
33139;DHT22;19501;50.948;5.316;2022-09-01T10:12:03;26.20;85.30
33139;DHT22;19501;50.948;5.316;2022-09-01T10:15:20;26.30;85.30
33139;DHT22;19501;50.948;5.316;2022-09-01T10:17:41;26.50;84.30
33139;DHT22;19501;50.948;5.316;2022-09-01T10:20:23;26.40;83.80
33139;DHT22;19501;50.948;5.316;2022-09-01T10:22:52;26.40;81.40
33139;DHT22;19501;50.948;5.316;2022-09-01T10:25:27;26.30;82.30
33139;DHT22;19501;50.948;5.316;2022-09-01T10:28:01;26.30;82.40
33139;DHT22;19501;50.948;5.316;2022-09-01T10:30:30;26.50;81.20
33139;DHT22;19501;50.948;5.316;2022-09-01T10:33:00;26.70;81.10
33139;DHT22;19501;50.948;5.316;2022-09-01T10:35:38;26.80;80.30
33139;DHT22;19501;50.948;5.316;2022-09-01T10:38:09;26.90;80.80
33139;DHT22;19501;50.948;5.316;2022-09-01T10:40:39;27.00;79.00
33139;DHT22;19501;50.948;5.316;2022-09-01T10:46:09;26.20;81.00
33139;DHT22;19501;50.948;5.316;2022-09-01T10:48:43;26.40;79.60
33139;DHT22;19501;50.948;5.316;2022-09-01T10:58:59;28.00;75.10
33139;DHT22;19501;50.948;5.316;2022-09-01T11:04:11;28.60;75.00
33139;DHT22;19501;50.948;5.316;2022-09-01T11:06:57;29.00;71.20
33139;DHT22;19501;50.948;5.316;2022-09-01T11:12:24;29.00;70.40
33139;DHT22;19501;50.948;5.316;2022-09-01T11:14:53;29.30;68.40
33139;DHT22;19501;50.948;5.316;2022-09-01T11:25:32;30.10;64.00
33139;DHT22;19501;50.948;5.316;2022-09-01T11:28:02;30.10;64.20
33139;DHT22;19501;50.948;5.316;2022-09-01T11:36:01;30.60;62.50
33139;DHT22;19501;50.948;5.316;2022-09-01T11:38:28;30.50;62.50
33139;DHT22;19501;50.948;5.316;2022-09-01T11:40:57;29.90;62.60
33139;DHT22;19501;50.948;5.316;2022-09-01T11:43:25;29.80;62.10
33139;DHT22;19501;50.948;5.316;2022-09-01T11:46:19;30.40;62.20
33139;DHT22;19501;50.948;5.316;2022-09-01T11:48:47;31.20;60.80
33139;DHT22;19501;50.948;5.316;2022-09-01T11:51:14;31.70;59.50
33139;DHT22;19501;50.948;5.316;2022-09-01T11:53:42;31.40;59.10
33139;DHT22;19501;50.948;5.316;2022-09-01T11:56:23;31.70;59.60
33139;DHT22;19501;50.948;5.316;2022-09-01T11:58:50;31.80;58.10
33139;DHT22;19501;50.948;5.316;2022-09-01T12:01:22;31.30;58.40
33139;DHT22;19501;50.948;5.316;2022-09-01T12:03:55;31.30;58.10
33139;DHT22;19501;50.948;5.316;2022-09-01T12:06:27;31.70;59.00
33139;DHT22;19501;50.948;5.316;2022-09-01T12:09:02;32.10;58.20
33139;DHT22;19501;50.948;5.316;2022-09-01T12:11:31;32.00;57.60
33139;DHT22;19501;50.948;5.316;2022-09-01T12:16:27;32.90;56.20
33139;DHT22;19501;50.948;5.316;2022-09-01T12:18:55;33.20;56.40
33139;DHT22;19501;50.948;5.316;2022-09-01T12:21:28;32.50;56.90
33139;DHT22;19501;50.948;5.316;2022-09-01T12:26:38;34.00;54.90
33139;DHT22;19501;50.948;5.316;2022-09-01T12:29:04;33.50;53.90
33139;DHT22;19501;50.948;5.316;2022-09-01T12:31:31;32.90;54.70
33139;DHT22;19501;50.948;5.316;2022-09-01T12:33:57;32.60;55.00
33139;DHT22;19501;50.948;5.316;2022-09-01T12:36:32;32.90;54.70
33139;DHT22;19501;50.948;5.316;2022-09-01T12:41:45;32.40;55.00
33139;DHT22;19501;50.948;5.316;2022-09-01T12:47:43;33.00;53.90
33139;DHT22;19501;50.948;5.316;2022-09-01T12:52:59;32.40;53.70
33139;DHT22;19501;50.948;5.316;2022-09-01T12:55:29;32.20;53.30
33139;DHT22;19501;50.948;5.316;2022-09-01T12:58:01;31.90;52.10
33139;DHT22;19501;50.948;5.316;2022-09-01T13:05:36;32.30;52.50
33139;DHT22;19501;50.948;5.316;2022-09-01T13:08:09;32.10;52.00
33139;DHT22;19501;50.948;5.316;2022-09-01T13:10:44;32.10;52.90
33139;DHT22;19501;50.948;5.316;2022-09-01T13:13:11;32.10;52.40
33139;DHT22;19501;50.948;5.316;2022-09-01T13:15:41;32.10;52.70
33139;DHT22;19501;50.948;5.316;2022-09-01T13:18:07;32.20;52.00
33139;DHT22;19501;50.948;5.316;2022-09-01T13:20:34;32.20;52.90
33139;DHT22;19501;50.948;5.316;2022-09-01T13:23:00;31.90;52.50
33139;DHT22;19501;50.948;5.316;2022-09-01T13:25:27;31.80;53.50
33139;DHT22;19501;50.948;5.316;2022-09-01T13:27:53;31.80;53.70
33139;DHT22;19501;50.948;5.316;2022-09-01T13:30:22;31.40;54.00
33139;DHT22;19501;50.948;5.316;2022-09-01T13:32:49;31.40;54.40
33139;DHT22;19501;50.948;5.316;2022-09-01T13:35:19;31.40;54.40
33139;DHT22;19501;50.948;5.316;2022-09-01T13:37:45;31.20;53.40
33139;DHT22;19501;50.948;5.316;2022-09-01T13:40:12;31.10;54.40
33139;DHT22;19501;50.948;5.316;2022-09-01T13:42:44;31.20;54.90
33139;DHT22;19501;50.948;5.316;2022-09-01T13:45:11;31.30;54.40
33139;DHT22;19501;50.948;5.316;2022-09-01T13:47:41;31.00;54.20
33139;DHT22;19501;50.948;5.316;2022-09-01T13:50:07;30.90;53.70
33139;DHT22;19501;50.948;5.316;2022-09-01T13:52:35;30.80;53.60
33139;DHT22;19501;50.948;5.316;2022-09-01T13:55:00;30.90;52.90
33139;DHT22;19501;50.948;5.316;2022-09-01T13:57:26;30.80;53.20
33139;DHT22;19501;50.948;5.316;2022-09-01T13:59:52;30.90;53.70
33139;DHT22;19501;50.948;5.316;2022-09-01T14:02:19;30.90;53.10
33139;DHT22;19501;50.948;5.316;2022-09-01T14:04:44;31.00;53.40
33139;DHT22;19501;50.948;5.316;2022-09-01T14:07:10;31.00;52.80
33139;DHT22;19501;50.948;5.316;2022-09-01T14:09:35;30.80;52.80
33139;DHT22;19501;50.948;5.316;2022-09-01T14:12:01;30.70;53.00
33139;DHT22;19501;50.948;5.316;2022-09-01T14:14:27;30.80;53.00
33139;DHT22;19501;50.948;5.316;2022-09-01T14:16:53;30.80;53.40
33139;DHT22;19501;50.948;5.316;2022-09-01T14:19:19;30.70;54.20
33139;DHT22;19501;50.948;5.316;2022-09-01T14:21:46;30.20;54.10
33139;DHT22;19501;50.948;5.316;2022-09-01T14:24:12;30.00;54.90
33139;DHT22;19501;50.948;5.316;2022-09-01T14:26:39;29.90;55.50
33139;DHT22;19501;50.948;5.316;2022-09-01T14:29:05;30.00;54.90
33139;DHT22;19501;50.948;5.316;2022-09-01T14:31:32;30.00;54.70
33139;DHT22;19501;50.948;5.316;2022-09-01T14:34:00;29.50;55.30
33139;DHT22;19501;50.948;5.316;2022-09-01T14:36:26;29.40;55.60
33139;DHT22;19501;50.948;5.316;2022-09-01T14:38:52;29.60;55.00
33139;DHT22;19501;50.948;5.316;2022-09-01T14:41:20;29.40;55.20
33139;DHT22;19501;50.948;5.316;2022-09-01T14:43:47;29.50;55.80
33139;DHT22;19501;50.948;5.316;2022-09-01T14:46:14;29.70;54.70
33139;DHT22;19501;50.948;5.316;2022-09-01T14:48:41;29.80;54.50
33139;DHT22;19501;50.948;5.316;2022-09-01T14:51:08;29.80;54.70
33139;DHT22;19501;50.948;5.316;2022-09-01T14:53:34;29.80;55.00
33139;DHT22;19501;50.948;5.316;2022-09-01T14:56:01;29.60;55.10
33139;DHT22;19501;50.948;5.316;2022-09-01T14:58:28;29.70;55.10
33139;DHT22;19501;50.948;5.316;2022-09-01T15:00:55;29.80;54.90
33139;DHT22;19501;50.948;5.316;2022-09-01T15:03:24;29.40;54.90
33139;DHT22;19501;50.948;5.316;2022-09-01T15:05:52;29.30;54.80
33139;DHT22;19501;50.948;5.316;2022-09-01T15:08:19;29.50;55.20
33139;DHT22;19501;50.948;5.316;2022-09-01T15:10:45;29.70;55.10
33139;DHT22;19501;50.948;5.316;2022-09-01T15:13:11;30.00;55.20
33139;DHT22;19501;50.948;5.316;2022-09-01T15:15:38;30.20;54.60
33139;DHT22;19501;50.948;5.316;2022-09-01T15:18:04;30.40;54.40
33139;DHT22;19501;50.948;5.316;2022-09-01T15:20:31;30.10;53.70
33139;DHT22;19501;50.948;5.316;2022-09-01T15:23:17;30.00;53.80
33139;DHT22;19501;50.948;5.316;2022-09-01T15:25:45;29.90;53.10
33139;DHT22;19501;50.948;5.316;2022-09-01T15:28:12;29.80;53.90
33139;DHT22;19501;50.948;5.316;2022-09-01T15:30:37;29.70;54.20
33139;DHT22;19501;50.948;5.316;2022-09-01T15:33:05;29.60;54.90
33139;DHT22;19501;50.948;5.316;2022-09-01T15:35:31;29.30;55.30
33139;DHT22;19501;50.948;5.316;2022-09-01T15:37:57;29.30;54.80
33139;DHT22;19501;50.948;5.316;2022-09-01T15:40:24;29.20;55.40
33139;DHT22;19501;50.948;5.316;2022-09-01T15:42:50;29.30;55.80
33139;DHT22;19501;50.948;5.316;2022-09-01T15:45:20;29.20;55.60
33139;DHT22;19501;50.948;5.316;2022-09-01T15:47:46;29.10;55.80
33139;DHT22;19501;50.948;5.316;2022-09-01T15:50:19;29.20;56.00
33139;DHT22;19501;50.948;5.316;2022-09-01T15:53:06;29.10;56.30
33139;DHT22;19501;50.948;5.316;2022-09-01T15:56:02;29.10;56.10
33139;DHT22;19501;50.948;5.316;2022-09-01T15:58:27;28.90;56.70
33139;DHT22;19501;50.948;5.316;2022-09-01T16:00:54;28.90;57.40
33139;DHT22;19501;50.948;5.316;2022-09-01T16:03:21;28.90;57.00
33139;DHT22;19501;50.948;5.316;2022-09-01T16:05:48;28.70;57.60
33139;DHT22;19501;50.948;5.316;2022-09-01T16:08:14;28.60;57.40
33139;DHT22;19501;50.948;5.316;2022-09-01T16:10:40;28.30;57.80
33139;DHT22;19501;50.948;5.316;2022-09-01T16:13:07;28.00;57.90
33139;DHT22;19501;50.948;5.316;2022-09-01T16:15:33;27.90;58.20
33139;DHT22;19501;50.948;5.316;2022-09-01T16:23:45;28.10;58.40
33139;DHT22;19501;50.948;5.316;2022-09-01T16:26:14;28.10;57.90
33139;DHT22;19501;50.948;5.316;2022-09-01T16:28:47;28.10;58.10
33139;DHT22;19501;50.948;5.316;2022-09-01T16:31:23;28.00;58.00
33139;DHT22;19501;50.948;5.316;2022-09-01T16:33:55;28.00;58.40
33139;DHT22;19501;50.948;5.316;2022-09-01T16:39:39;28.00;58.40
33139;DHT22;19501;50.948;5.316;2022-09-01T16:42:25;28.40;57.70
33139;DHT22;19501;50.948;5.316;2022-09-01T16:44:54;28.60;57.90
33139;DHT22;19501;50.948;5.316;2022-09-01T16:52:26;28.30;58.00
33139;DHT22;19501;50.948;5.316;2022-09-01T17:06:49;27.40;59.10
33139;DHT22;19501;50.948;5.316;2022-09-01T17:09:52;27.40;59.40
33139;DHT22;19501;50.948;5.316;2022-09-01T17:14:55;27.40;59.20
33139;DHT22;19501;50.948;5.316;2022-09-01T17:17:31;27.20;59.50